Time;durP1;ratioP1;P1;durP2;ratioP2;P2;SDS_P1;SDS_P2;PMS_P1;PMS_P2;Temp;Humidity;BMP_temperature;BMP_pressure;BME280_temperature;BME280_humidity;BME280_pressure;Samples;Min_cycle;Max_cycle;Signal;HPM_P1;HPM_P2
2022/08/07 00:00:42;;;;;;;2.95;1.15;;;;;;;19.97;54.81;101752.81;5051938;28;20099;-82
2022/08/07 00:03:10;;;;;;;5.18;1.13;;;;;;;20.12;54.92;101746.16;5051311;28;20386;-81
2022/08/07 00:05:36;;;;;;;2.35;1.10;;;;;;;20.15;54.10;101742.38;5051492;28;20028;-82
2022/08/07 00:08:02;;;;;;;2.33;1.13;;;;;;;20.06;54.39;101745.84;5051476;28;20025;-81
2022/08/07 00:10:29;;;;;;;4.85;2.03;;;;;;;20.13;53.85;101742.50;5053940;28;20021;-82
2022/08/07 00:12:55;;;;;;;2.65;1.33;;;;;;;20.03;54.36;101738.13;5051325;28;20025;-82
2022/08/07 00:15:20;;;;;;;3.83;1.00;;;;;;;20.07;54.55;101740.38;5051136;28;20049;-82
2022/08/07 00:17:46;;;;;;;6.32;0.95;;;;;;;20.06;54.31;101737.84;5051877;28;20056;-82
2022/08/07 00:20:11;;;;;;;5.25;1.10;;;;;;;20.00;54.66;101740.09;5051134;28;20108;-82
2022/08/07 00:22:37;;;;;;;1.63;1.05;;;;;;;19.96;54.04;101740.47;5053619;28;20033;-82
2022/08/07 00:25:04;;;;;;;5.32;1.00;;;;;;;20.04;54.85;101740.63;5050779;28;20026;-82
2022/08/07 00:27:29;;;;;;;2.67;1.00;;;;;;;19.88;54.70;101742.94;5051180;28;20048;-82
2022/08/07 00:29:55;;;;;;;4.88;1.10;;;;;;;19.92;55.84;101739.03;5051316;28;20114;-82
2022/08/07 00:32:20;;;;;;;4.25;1.20;;;;;;;19.92;55.17;101723.88;5049684;28;20029;-82
2022/08/07 00:34:48;;;;;;;4.55;1.10;;;;;;;19.81;56.08;101739.97;5051015;28;20029;-82
2022/08/07 00:37:16;;;;;;;11.23;1.55;;;;;;;19.77;56.49;101739.41;5052432;28;20029;-82
2022/08/07 00:39:41;;;;;;;4.63;1.40;;;;;;;19.74;56.82;101734.31;5051964;28;20055;-82
2022/08/07 00:42:07;;;;;;;2.88;1.00;;;;;;;19.71;56.87;101739.94;5054632;28;20367;-82
2022/08/07 00:44:34;;;;;;;5.22;1.42;;;;;;;19.67;56.49;101733.13;5055328;28;20029;-82
2022/08/07 00:47:01;;;;;;;3.72;1.45;;;;;;;19.69;56.96;101735.66;5054672;28;20071;-83
2022/08/07 00:49:27;;;;;;;5.28;1.13;;;;;;;19.61;57.14;101736.34;5054917;28;20025;-82
2022/08/07 00:51:52;;;;;;;3.40;1.30;;;;;;;19.52;57.65;101732.63;5054596;28;20040;-82
2022/08/07 00:54:17;;;;;;;2.40;1.00;;;;;;;19.51;58.30;101728.28;5054807;28;20033;-82
2022/08/07 00:56:43;;;;;;;3.38;1.00;;;;;;;19.44;58.27;101728.91;5053915;28;20025;-82
2022/08/07 00:59:09;;;;;;;5.05;1.30;;;;;;;19.46;58.63;101725.16;5054363;28;20041;-82
2022/08/07 01:01:34;;;;;;;3.28;0.98;;;;;;;19.44;59.61;101731.59;5057786;28;20445;-82
2022/08/07 01:04:04;;;;;;;3.28;1.10;;;;;;;19.49;59.26;101730.22;5053839;28;20020;-82
2022/08/07 01:06:29;;;;;;;7.07;1.60;;;;;;;19.23;59.68;101721.75;5053671;28;20029;-82
2022/08/07 01:08:55;;;;;;;3.10;1.05;;;;;;;19.26;59.75;101718.84;5054247;28;20359;-82
2022/08/07 01:11:21;;;;;;;4.53;1.33;;;;;;;19.22;60.44;101720.91;5054259;28;20501;-82
2022/08/07 01:13:46;;;;;;;3.95;1.35;;;;;;;19.15;60.91;101721.56;5054580;28;20033;-82
2022/08/07 01:16:13;;;;;;;6.05;1.70;;;;;;;19.08;61.96;101718.56;5053777;28;20079;-81
2022/08/07 01:18:38;;;;;;;2.92;1.77;;;;;;;19.07;62.08;101718.69;5053428;28;20029;-81
2022/08/07 01:21:15;;;;;;;2.38;1.80;;;;;;;19.13;63.44;101715.50;5056392;28;20048;-82
2022/08/07 01:23:45;;;;;;;7.32;2.92;;;;;;;18.99;65.50;101712.16;5066788;28;20090;-82
2022/08/07 01:26:13;;;;;;;6.28;2.97;;;;;;;18.93;65.40;101712.69;5053924;28;20025;-82
2022/08/07 01:28:41;;;;;;;8.30;3.50;;;;;;;18.91;66.88;101711.13;5054461;28;20108;-81
2022/08/07 01:31:07;;;;;;;9.43;3.40;;;;;;;18.80;67.42;101712.03;5053611;28;20630;-81
2022/08/07 01:33:32;;;;;;;7.95;3.65;;;;;;;18.69;68.01;101717.34;5053261;28;20379;-82
2022/08/07 01:36:01;;;;;;;7.35;3.45;;;;;;;18.55;68.82;101713.97;5053686;28;20028;-82
2022/08/07 01:38:28;;;;;;;5.60;3.58;;;;;;;18.58;70.65;101719.06;5053560;28;20040;-82
2022/08/07 01:40:57;;;;;;;10.50;4.10;;;;;;;18.45;71.34;101717.53;5053183;28;20031;-82
2022/08/07 01:43:24;;;;;;;6.15;3.42;;;;;;;18.39;71.94;101719.69;5053592;28;20024;-82
2022/08/07 01:45:50;;;;;;;10.13;3.60;;;;;;;18.37;72.59;101720.78;5053939;28;20056;-81
2022/08/07 01:48:15;;;;;;;6.97;2.80;;;;;;;18.26;72.19;101711.00;5053097;28;20494;-81
2022/08/07 01:50:45;;;;;;;4.82;2.50;;;;;;;18.26;71.74;101713.66;5053498;28;20056;-82
2022/08/07 01:53:13;;;;;;;5.68;2.90;;;;;;;18.15;72.58;101725.16;5053538;28;20087;-82
2022/08/07 01:55:43;;;;;;;5.45;3.08;;;;;;;18.09;72.47;101727.44;5053589;28;20550;-81
2022/08/07 01:58:11;;;;;;;6.95;2.47;;;;;;;17.99;73.48;101724.66;5052590;28;20078;-81
2022/08/07 02:00:39;;;;;;;3.45;2.55;;;;;;;17.91;73.91;101724.41;5053976;28;20025;-81
2022/08/07 02:03:12;;;;;;;5.97;3.28;;;;;;;18.03;73.86;101718.16;5065590;28;20033;-81
2022/08/07 02:05:46;;;;;;;7.22;3.47;;;;;;;17.93;73.19;101719.81;5054018;28;20079;-82
2022/08/07 02:08:16;;;;;;;5.25;2.95;;;;;;;17.90;73.97;101722.75;5052929;28;20028;-81
2022/08/07 02:10:44;;;;;;;5.95;3.28;;;;;;;17.89;74.46;101726.34;5053322;28;20040;-80
2022/08/07 02:13:11;;;;;;;3.85;2.85;;;;;;;17.80;75.42;101717.25;5053338;28;20060;-81
2022/08/07 02:15:38;;;;;;;3.83;2.80;;;;;;;17.80;75.34;101727.88;5051336;28;20025;-81
2022/08/07 02:18:08;;;;;;;4.70;3.40;;;;;;;17.64;74.23;101718.44;5053338;28;20060;-81
2022/08/07 02:20:34;;;;;;;5.65;3.20;;;;;;;17.50;75.52;101723.13;5053068;28;20051;-81
2022/08/07 02:23:02;;;;;;;5.22;2.97;;;;;;;17.48;76.87;101725.91;5053475;28;20052;-81
2022/08/07 02:25:30;;;;;;;9.68;3.40;;;;;;;17.50;77.08;101718.66;5052777;28;20021;-81
2022/08/07 02:28:00;;;;;;;6.43;3.17;;;;;;;17.39;77.81;101723.94;5054688;28;20029;-81
2022/08/07 02:30:26;;;;;;;3.65;2.80;;;;;;;17.39;77.75;101716.81;5051599;28;20020;-81
2022/08/07 02:32:52;;;;;;;5.03;3.15;;;;;;;17.35;77.94;101719.81;5052839;28;20115;-82
2022/08/07 02:35:18;;;;;;;4.25;3.03;;;;;;;17.35;77.48;101719.81;5051693;28;20040;-81
2022/08/07 02:37:47;;;;;;;6.88;3.08;;;;;;;17.26;78.02;101721.38;5052629;28;20029;-81
2022/08/07 02:40:13;;;;;;;6.15;3.42;;;;;;;17.13;79.16;101718.78;5052465;28;20036;-81
2022/08/07 02:42:40;;;;;;;5.30;3.30;;;;;;;17.17;79.06;101722.06;5054821;28;20429;-81
2022/08/07 02:45:09;;;;;;;6.90;2.88;;;;;;;17.25;78.11;101724.97;5052366;28;20033;-81
2022/08/07 02:47:35;;;;;;;4.05;2.85;;;;;;;17.05;77.92;101711.41;5052753;28;20076;-81
2022/08/07 02:50:00;;;;;;;3.72;2.80;;;;;;;17.01;79.33;101720.53;5052310;28;20052;-81
2022/08/07 02:52:33;;;;;;;7.68;3.17;;;;;;;17.10;79.56;101723.47;5052663;28;20036;-81
2022/08/07 02:55:02;;;;;;;5.28;2.40;;;;;;;16.96;79.59;101717.41;5052181;28;20028;-81
2022/08/07 02:57:28;;;;;;;7.80;2.88;;;;;;;16.93;79.89;101728.22;5052406;28;20475;-81
2022/08/07 02:59:56;;;;;;;6.90;3.13;;;;;;;16.80;80.10;101724.75;5051807;28;20028;-81
2022/08/07 03:02:22;;;;;;;4.68;3.15;;;;;;;16.65;81.15;101724.91;5070974;28;20509;-82
2022/08/07 03:04:51;;;;;;;6.50;3.47;;;;;;;16.85;80.18;101720.00;5056602;28;20044;-82
2022/08/07 03:07:16;;;;;;;4.80;3.22;;;;;;;16.83;79.76;101717.44;5051000;28;20033;-81
2022/08/07 03:09:43;;;;;;;7.15;3.30;;;;;;;16.91;80.07;101718.69;5051966;28;20139;-82
2022/08/07 03:12:10;;;;;;;4.25;3.00;;;;;;;16.86;80.41;101716.38;5051631;28;20543;-81
2022/08/07 03:14:36;;;;;;;5.30;3.03;;;;;;;16.86;80.20;101713.72;5051541;28;20036;-81
2022/08/07 03:17:06;;;;;;;3.58;2.92;;;;;;;16.87;80.06;101711.94;5052202;28;20096;-81
2022/08/07 03:19:32;;;;;;;3.65;2.78;;;;;;;16.77;80.25;101714.38;5051788;28;20031;-81
2022/08/07 03:21:58;;;;;;;5.57;2.95;;;;;;;16.70;79.25;101713.13;5052174;28;20017;-82
2022/08/07 03:24:23;;;;;;;5.97;2.90;;;;;;;16.71;80.65;101712.19;5051875;28;20104;-81
2022/08/07 03:26:50;;;;;;;5.57;3.25;;;;;;;16.66;80.99;101713.34;5053780;28;20021;-81
2022/08/07 03:29:17;;;;;;;5.55;2.95;;;;;;;16.57;81.71;101711.38;5053246;28;20032;-81
2022/08/07 03:31:45;;;;;;;4.43;3.28;;;;;;;16.61;81.49;101702.25;5050742;28;20104;-81
2022/08/07 03:34:12;;;;;;;6.97;3.08;;;;;;;16.53;81.85;101711.69;5051443;28;20040;-81
2022/08/07 03:36:38;;;;;;;3.88;2.47;;;;;;;16.51;81.24;101705.66;5051732;28;20046;-81
2022/08/07 03:39:07;;;;;;;4.65;2.65;;;;;;;16.59;81.85;101701.50;5050862;28;20062;-81
2022/08/07 03:41:35;;;;;;;4.28;2.47;;;;;;;16.54;81.54;101706.28;5051658;28;20029;-81
2022/08/07 03:44:00;;;;;;;3.28;2.05;;;;;;;16.53;81.34;101701.09;5051126;28;20547;-81
2022/08/07 03:46:27;;;;;;;5.32;2.70;;;;;;;16.46;81.20;101703.34;5051663;28;20037;-82
2022/08/07 03:48:53;;;;;;;5.65;2.70;;;;;;;16.49;81.44;101703.13;5051059;28;20021;-81
2022/08/07 03:51:20;;;;;;;4.75;2.40;;;;;;;16.52;81.41;101707.34;5051371;28;20059;-81
2022/08/07 03:53:46;;;;;;;5.32;2.40;;;;;;;16.42;81.75;101701.88;5050262;28;20423;-81
2022/08/07 03:56:15;;;;;;;4.18;2.80;;;;;;;16.51;81.60;101701.22;5051275;28;20151;-81
2022/08/07 03:58:40;;;;;;;5.55;2.88;;;;;;;16.46;81.47;101698.88;5051644;28;20553;-81
2022/08/07 04:01:09;;;;;;;4.15;2.53;;;;;;;16.55;80.47;101701.84;5050752;28;20119;-81
2022/08/07 04:03:35;;;;;;;7.97;3.42;;;;;;;16.43;81.58;101703.59;5054295;28;20025;-81
2022/08/07 04:06:01;;;;;;;4.72;3.30;;;;;;;16.43;82.41;101709.72;5051305;28;20017;-81
2022/08/07 04:08:26;;;;;;;6.18;3.30;;;;;;;16.47;81.66;101697.09;5051856;28;20033;-81
2022/08/07 04:10:53;;;;;;;5.70;3.25;;;;;;;16.47;81.99;101705.06;5051530;28;20032;-81
2022/08/07 04:13:20;;;;;;;7.65;3.45;;;;;;;16.44;82.59;101699.97;5050972;28;20043;-81
2022/08/07 04:15:46;;;;;;;5.75;2.90;;;;;;;16.45;82.34;101704.31;5055090;28;20394;-81
2022/08/07 04:18:13;;;;;;;3.38;2.58;;;;;;;16.38;81.42;101714.50;5055155;28;20032;-81
2022/08/07 04:20:39;;;;;;;6.50;3.03;;;;;;;16.29;82.81;101699.28;5055568;28;20036;-81
2022/08/07 04:23:05;;;;;;;4.45;2.63;;;;;;;16.30;82.08;101702.75;5055145;28;20029;-81
2022/08/07 04:25:32;;;;;;;4.15;3.00;;;;;;;16.27;82.89;101695.84;5057377;28;20033;-81
2022/08/07 04:27:58;;;;;;;8.70;2.70;;;;;;;16.21;81.21;101694.53;5055620;28;20029;-81
2022/08/07 04:30:24;;;;;;;5.70;2.70;;;;;;;16.20;82.71;101698.09;5054407;28;20036;-81
2022/08/07 04:32:50;;;;;;;5.28;2.92;;;;;;;16.16;82.18;101699.28;5055733;28;20025;-81
2022/08/07 04:35:15;;;;;;;4.78;2.53;;;;;;;16.16;82.19;101701.94;5054872;28;20062;-81
2022/08/07 04:37:41;;;;;;;3.25;2.38;;;;;;;16.15;82.80;101694.09;5059715;28;20048;-81
2022/08/07 04:40:07;;;;;;;7.57;2.35;;;;;;;16.15;82.45;101704.69;5074549;28;20063;-81
2022/08/07 04:42:33;;;;;;;6.78;2.78;;;;;;;16.12;82.86;101702.28;5066201;28;20032;-81
2022/08/07 04:45:00;;;;;;;5.03;2.70;;;;;;;16.13;82.71;101696.00;5054503;28;20021;-81
2022/08/07 04:48:05;;;;;;;4.05;2.60;;;;;;;16.26;81.96;101708.25;5054583;28;20071;-81
2022/08/07 04:50:38;;;;;;;5.05;3.10;;;;;;;16.15;82.55;101699.38;5053039;28;20037;-81
2022/08/07 04:53:12;;;;;;;5.82;2.85;;;;;;;15.96;83.09;101692.75;5068968;28;20032;-81
2022/08/07 04:56:00;;;;;;;6.22;2.63;;;;;;;15.84;83.97;101694.44;5067383;28;20029;-81
2022/08/07 04:58:38;;;;;;;5.68;2.83;;;;;;;15.93;84.12;101689.47;5054546;28;20060;-81
2022/08/07 05:01:20;;;;;;;3.47;2.78;;;;;;;16.06;83.64;101695.59;5054832;28;20074;-81
2022/08/07 05:03:57;;;;;;;6.32;3.28;;;;;;;16.13;83.43;101696.84;5054237;28;20555;-81
2022/08/07 05:06:53;;;;;;;5.72;3.15;;;;;;;16.13;83.12;101691.53;5056330;28;20044;-81
2022/08/07 05:09:42;;;;;;;3.25;2.33;;;;;;;16.12;82.62;101695.16;5051873;28;20037;-81
2022/08/07 05:12:12;;;;;;;4.63;2.53;;;;;;;16.10;83.46;101702.38;5054512;28;20033;-81
2022/08/07 05:14:41;;;;;;;7.03;2.97;;;;;;;16.14;83.56;101693.25;5053771;28;20037;-81
2022/08/07 05:17:10;;;;;;;5.32;3.45;;;;;;;16.16;82.82;101701.09;5053941;28;20052;-81
2022/08/07 05:19:40;;;;;;;6.75;2.38;;;;;;;16.21;82.99;101705.13;5053916;28;20148;-81
2022/08/07 05:22:08;;;;;;;3.45;2.72;;;;;;;16.22;82.82;101701.50;5054017;28;20028;-81
2022/08/07 05:24:35;;;;;;;5.80;2.95;;;;;;;16.26;82.88;101702.13;5053860;28;20029;-81
2022/08/07 05:27:01;;;;;;;5.97;2.58;;;;;;;16.23;82.84;101708.50;5053713;28;20029;-81
2022/08/07 05:29:28;;;;;;;5.00;3.17;;;;;;;16.25;81.52;101703.94;5053738;28;20490;-81
2022/08/07 05:31:55;;;;;;;4.70;2.50;;;;;;;16.29;82.58;101711.66;5053320;28;20442;-81
2022/08/07 05:34:22;;;;;;;4.95;2.70;;;;;;;16.19;82.46;101701.72;5054569;28;20025;-81
2022/08/07 05:36:50;;;;;;;5.38;2.58;;;;;;;16.25;83.37;101706.59;5053745;28;20036;-81
2022/08/07 05:39:18;;;;;;;3.50;2.65;;;;;;;16.30;82.94;101710.72;5054028;28;20059;-81
2022/08/07 05:41:46;;;;;;;6.97;2.80;;;;;;;16.28;83.17;101717.94;5053709;28;20028;-81
2022/08/07 05:44:12;;;;;;;5.15;2.67;;;;;;;16.29;82.77;101712.53;5052560;28;20021;-81
2022/08/07 05:46:39;;;;;;;4.28;3.10;;;;;;;16.25;83.12;101711.88;5053591;28;20029;-81
2022/08/07 05:49:09;;;;;;;5.78;2.88;;;;;;;16.31;82.02;101715.03;5065411;28;20044;-81
2022/08/07 05:51:34;;;;;;;6.30;3.03;;;;;;;16.26;82.97;101720.69;5083410;28;20047;-81
2022/08/07 05:54:01;;;;;;;6.57;3.20;;;;;;;16.31;81.77;101715.03;5089681;28;20389;-81
2022/08/07 05:56:27;;;;;;;4.30;2.70;;;;;;;16.34;82.21;101714.84;5072509;28;20112;-81
2022/08/07 05:58:53;;;;;;;5.68;2.80;;;;;;;16.43;81.73;101722.13;5073203;28;20033;-81
2022/08/07 06:01:19;;;;;;;4.05;2.58;;;;;;;16.41;82.56;101724.88;5073223;28;20091;-81
2022/08/07 06:03:49;;;;;;;6.88;3.25;;;;;;;16.58;82.10;101717.53;5073210;28;20031;-81
2022/08/07 06:06:16;;;;;;;5.53;2.92;;;;;;;16.53;81.70;101715.22;5068436;28;20063;-81
2022/08/07 06:08:42;;;;;;;4.78;2.83;;;;;;;16.54;82.12;101716.88;5052979;28;20020;-81
2022/08/07 06:11:08;;;;;;;5.80;2.88;;;;;;;16.64;82.47;101717.91;5053005;28;20040;-81
2022/08/07 06:13:37;;;;;;;6.43;3.05;;;;;;;16.77;81.20;101722.34;5053418;28;20033;-81
2022/08/07 06:16:05;;;;;;;4.07;3.08;;;;;;;16.79;82.08;101715.94;5053094;28;20036;-81
2022/08/07 06:18:31;;;;;;;5.60;3.28;;;;;;;16.82;81.81;101714.91;5052893;28;20053;-81
2022/08/07 06:20:59;;;;;;;5.13;3.40;;;;;;;16.94;82.13;101721.97;5052810;28;20100;-81
2022/08/07 06:23:24;;;;;;;7.40;3.25;;;;;;;17.05;81.40;101715.88;5052922;28;20398;-81
2022/08/07 06:25:50;;;;;;;6.30;3.17;;;;;;;17.17;80.48;101724.72;5052614;28;20086;-81
2022/08/07 06:28:16;;;;;;;5.35;3.25;;;;;;;17.30;79.79;101728.16;5052645;28;20083;-80
2022/08/07 06:30:41;;;;;;;6.18;2.78;;;;;;;17.43;78.43;101718.28;5053013;28;20439;-81
2022/08/07 06:33:07;;;;;;;5.47;3.20;;;;;;;17.52;78.33;101726.53;5052729;28;20033;-81
2022/08/07 06:35:35;;;;;;;4.00;2.72;;;;;;;17.80;78.37;101728.72;5052664;28;20032;-81
2022/08/07 06:38:00;;;;;;;3.45;2.30;;;;;;;19.57;74.24;101730.41;5051377;28;20132;-80
2022/08/07 06:40:28;;;;;;;4.18;2.58;;;;;;;27.69;44.70;101718.09;5052608;28;20542;-80
2022/08/07 06:42:55;;;;;;;3.63;2.30;;;;;;;31.03;35.28;101713.41;5052448;28;20025;-81
2022/08/07 06:45:22;;;;;;;4.43;2.47;;;;;;;32.65;32.09;101713.56;5052311;28;20044;-81
2022/08/07 06:47:48;;;;;;;2.95;1.77;;;;;;;33.49;30.00;101719.59;5059427;28;20025;-81
2022/08/07 06:50:13;;;;;;;3.42;2.10;;;;;;;35.90;27.69;101706.75;5072266;28;19912;-81
2022/08/07 06:52:41;;;;;;;;;;;;;;;37.25;24.54;101714.34;5072817;28;19923;-81
2022/08/07 06:55:18;;;;;;;;;;;;;;;37.44;24.20;101714.91;5072729;28;19917;-81
2022/08/07 06:57:44;;;;;;;;;;;;;;;38.72;22.60;101696.34;5072614;28;20022;-81
2022/08/07 07:00:10;;;;;;;;;;;;;;;39.12;22.08;101705.16;5072445;28;19962;-81
2022/08/07 07:02:35;;;;;;;;;;;;;;;39.48;22.66;101708.97;5072563;28;19952;-82
2022/08/07 07:05:01;;;;;;;;;;;;;;;40.19;21.13;101705.66;5062682;28;19977;-82
2022/08/07 07:07:26;;;;;;;;;;;;;;;40.91;19.71;101705.72;5052519;28;19931;-82
2022/08/07 07:09:51;;;;;;;;;;;;;;;42.90;19.02;101697.56;5051021;28;19913;-82
2022/08/07 07:12:17;;;;;;;;;;;;;;;42.74;18.80;101704.31;5053018;28;20376;-82
2022/08/07 07:14:52;;;;;;;;;;;;;;;42.82;18.75;101702.88;5063295;28;19912;-81
2022/08/07 07:17:23;;;;;;;;;;;;;;;43.63;17.76;101698.38;5052321;28;19942;-82
2022/08/07 07:19:51;;;;;;;;;;;;;;;43.56;17.40;101704.25;5051857;28;20397;-82
2022/08/07 07:22:17;;;;;;;;;;;;;;;45.14;16.13;101700.13;5052633;28;20298;-82
2022/08/07 07:24:43;;;;;;;;;;;;;;;44.63;16.41;101705.78;5055659;28;19917;-82
2022/08/07 07:27:10;;;;;;;;;;;;;;;45.60;16.36;101703.94;5063559;28;19919;-82
2022/08/07 07:29:38;;;;;;;;;;;;;;;45.14;15.55;101705.66;5062123;28;19916;-80
2022/08/07 07:32:06;;;;;;;;;;;;;;;46.29;15.76;101714.03;5051802;28;19943;-82
2022/08/07 07:34:31;;;;;;;;;;;;;;;46.61;15.51;101707.41;5061046;28;19970;-81
2022/08/07 07:37:01;;;;;;;;;;;;;;;46.49;15.01;101721.91;5059227;28;19920;-82
2022/08/07 07:39:28;;;;;;;;;;;;;;;46.96;14.87;101712.34;5056514;28;19927;-81
2022/08/07 07:41:55;;;;;;;;;;;;;;;46.93;15.33;101715.78;5070758;28;19966;-81
2022/08/07 07:44:21;;;;;;;;;;;;;;;48.06;14.77;101714.09;5071121;28;19917;-82
2022/08/07 07:46:47;;;;;;;;;;;;;;;47.19;14.65;101708.38;5052676;28;19917;-82
2022/08/07 07:49:14;;;;;;;;;;;;;;;48.42;14.18;101696.22;5060560;28;20075;-82
2022/08/07 07:51:41;;;;;;;;;;;;;;;47.21;14.89;101694.97;5075129;28;20011;-83
2022/08/07 07:54:07;;;;;;;;;;;;;;;48.11;14.53;101710.34;5057798;28;20047;-83
2022/08/07 07:56:34;;;;;;;;;;;;;;;48.83;13.87;101666.94;5070413;28;20027;-82
2022/08/07 07:59:00;;;;;;;;;;;;;;;48.30;14.22;101676.59;5066171;28;20353;-80
2022/08/07 08:01:27;;;;;;;;;;;;;;;49.03;13.79;101698.03;5055729;28;20330;-81
2022/08/07 08:03:54;;;;;;;;;;;;;;;48.04;14.45;101704.44;5054483;28;19916;-80
2022/08/07 08:06:20;;;;;;;;;;;;;;;47.99;14.59;101697.09;5053600;28;20263;-82
2022/08/07 08:08:46;;;;;;;;;;;;;;;48.16;14.92;101685.09;5068914;28;19916;-81
2022/08/07 08:11:13;;;;;;;;;;;;;;;48.93;14.41;101688.03;5071581;28;19938;-82
2022/08/07 08:13:41;;;;;;;;;;;;;;;48.68;13.63;101589.44;5051483;28;19971;-81
2022/08/07 08:16:07;;;;;;;;;;;;;;;49.34;12.73;101588.06;5061567;28;19920;-81
2022/08/07 08:18:34;;;;;;;;;;;;;;;49.06;13.62;101624.88;5068781;28;19936;-81
2022/08/07 08:21:00;;;;;;;;;;;;;;;48.94;13.92;101672.97;5071378;28;19920;-81
2022/08/07 08:28:55;;;;;;;;;;;;;;;47.06;15.22;101543.31;5066280;28;20368;-81
2022/08/07 08:31:27;;;;;;;;;;;;;;;45.08;16.40;101545.34;5071011;28;20003;-81
2022/08/07 08:33:54;;;;;;;;;;;;;;;45.10;16.62;101568.81;5060668;28;19916;-80
2022/08/07 08:36:20;;;;;;;;;;;;;;;45.08;16.22;101689.47;5061489;28;19924;-81
2022/08/07 08:38:46;;;;;;;;;;;;;;;44.10;16.63;101695.81;5070128;28;19963;-81
2022/08/07 08:41:14;;;;;;;;;;;;;;;43.83;18.27;101693.72;5071138;28;19939;-81
2022/08/07 08:43:46;;;;;;;;;;;;;;;46.22;15.57;101675.63;5060251;28;19978;-81
2022/08/07 08:46:15;;;;;;;;;;;;;;;45.75;16.36;101677.00;5057296;28;19917;-80
2022/08/07 08:48:44;;;;;;;;;;;;;;;46.67;14.19;101680.31;5053254;28;19956;-81
2022/08/07 08:51:16;;;;;;;;;;;;;;;47.64;13.44;101674.78;5051052;28;19917;-82
2022/08/07 08:53:56;;;;;;;;;;;;;;;47.51;13.80;101663.78;5052873;28;19931;-85
2022/08/07 08:56:31;;;;;;;;;;;;;;;47.76;14.18;101678.91;5054691;28;19913;-81
2022/08/07 08:59:06;;;;;;;;;;;;;;;47.73;14.25;101676.75;5064945;28;19927;-82
2022/08/07 09:01:55;;;;;;;;;;;;;;;48.31;13.84;101664.31;5061162;28;19915;-83
2022/08/07 09:04:45;;;;;;;2.35;0.47;;;;;;;46.32;15.51;101657.88;5069274;28;19917;-82
2022/08/07 09:07:18;;;;;;;2.50;0.50;;;;;;;46.85;15.55;101606.22;5061974;28;20390;-82
2022/08/07 09:09:53;;;;;;;1.80;0.65;;;;;;;48.57;13.93;101624.41;5073096;28;20496;-81
2022/08/07 09:12:39;;;;;;;2.40;0.60;;;;;;;49.53;14.03;101652.63;5060771;28;20035;-81
2022/08/07 09:15:38;;;;;;;7.90;1.83;;;;;;;46.93;15.64;101668.53;5066368;28;19962;-82
2022/08/07 09:18:35;;;;;;;1.60;0.50;;;;;;;42.12;18.72;101660.63;5072937;28;20028;-81
2022/08/07 09:21:34;;;;;;;2.45;0.70;;;;;;;41.51;21.00;101660.94;5074106;28;20020;-81
2022/08/07 09:24:20;;;;;;;1.92;0.70;;;;;;;38.95;22.22;101656.69;5067819;28;20094;-81
2022/08/07 09:27:01;;;;;;;4.10;0.65;;;;;;;36.13;25.87;101663.97;5073929;28;20017;-84
2022/08/07 09:52:51;;;;;;;4.78;0.60;;;;;;;36.51;23.43;101651.53;5123895;23;20047;-80
2022/08/07 09:55:23;;;;;;;1.95;0.68;;;;;;;36.31;24.14;101646.56;4973562;28;20020;-80
2022/08/07 09:58:08;;;;;;;2.33;0.63;;;;;;;35.75;26.53;101643.59;4973339;28;20031;-81
2022/08/07 10:01:08;;;;;;;2.38;0.63;;;;;;;36.49;23.58;101642.75;4968004;28;20085;-81
